sensor_id;sensor_type;location;lat;lon;timestamp;P1;durP1;ratioP1;P2;durP2;ratioP2
52888;SDS011;41413;52.770;6.892;2022-09-09T00:04:11;7.38;;;5.47;;
52888;SDS011;41413;52.770;6.892;2022-09-09T00:06:44;7.90;;;6.15;;
52888;SDS011;41413;52.770;6.892;2022-09-09T00:09:21;13.13;;;6.13;;
52888;SDS011;41413;52.770;6.892;2022-09-09T00:11:51;10.77;;;6.10;;
52888;SDS011;41413;52.770;6.892;2022-09-09T00:20:10;6.25;;;5.65;;
52888;SDS011;41413;52.770;6.892;2022-09-09T00:23:00;5.85;;;5.22;;
52888;SDS011;41413;52.770;6.892;2022-09-09T00:28:36;6.10;;;5.38;;
52888;SDS011;41413;52.770;6.892;2022-09-09T00:31:13;7.63;;;5.88;;
52888;SDS011;41413;52.770;6.892;2022-09-09T00:33:45;8.20;;;6.07;;
52888;SDS011;41413;52.770;6.892;2022-09-09T00:36:14;10.10;;;6.40;;
52888;SDS011;41413;52.770;6.892;2022-09-09T00:38:51;7.28;;;6.25;;
52888;SDS011;41413;52.770;6.892;2022-09-09T00:41:22;7.50;;;6.43;;
52888;SDS011;41413;52.770;6.892;2022-09-09T00:46:56;8.48;;;5.25;;
52888;SDS011;41413;52.770;6.892;2022-09-09T00:53:19;9.13;;;5.30;;
52888;SDS011;41413;52.770;6.892;2022-09-09T00:58:47;8.25;;;6.38;;
52888;SDS011;41413;52.770;6.892;2022-09-09T01:01:37;5.85;;;5.38;;
52888;SDS011;41413;52.770;6.892;2022-09-09T01:04:08;11.40;;;6.05;;
52888;SDS011;41413;52.770;6.892;2022-09-09T01:06:42;6.78;;;5.82;;
52888;SDS011;41413;52.770;6.892;2022-09-09T01:12:16;6.55;;;5.88;;
52888;SDS011;41413;52.770;6.892;2022-09-09T01:14:58;9.70;;;5.83;;
52888;SDS011;41413;52.770;6.892;2022-09-09T01:20:47;10.32;;;4.90;;
52888;SDS011;41413;52.770;6.892;2022-09-09T01:28:46;8.55;;;5.45;;
52888;SDS011;41413;52.770;6.892;2022-09-09T01:31:36;4.90;;;4.43;;
52888;SDS011;41413;52.770;6.892;2022-09-09T01:34:20;6.43;;;5.68;;
52888;SDS011;41413;52.770;6.892;2022-09-09T01:37:07;6.20;;;4.90;;
52888;SDS011;41413;52.770;6.892;2022-09-09T01:39:36;5.97;;;5.50;;
52888;SDS011;41413;52.770;6.892;2022-09-09T01:42:05;9.48;;;5.40;;
52888;SDS011;41413;52.770;6.892;2022-09-09T01:44:34;6.88;;;6.10;;
52888;SDS011;41413;52.770;6.892;2022-09-09T01:47:03;7.22;;;5.65;;
52888;SDS011;41413;52.770;6.892;2022-09-09T01:49:30;6.88;;;5.70;;
52888;SDS011;41413;52.770;6.892;2022-09-09T01:51:58;6.80;;;6.20;;
52888;SDS011;41413;52.770;6.892;2022-09-09T01:54:26;11.40;;;5.82;;
52888;SDS011;41413;52.770;6.892;2022-09-09T01:57:01;11.98;;;7.22;;
52888;SDS011;41413;52.770;6.892;2022-09-09T01:59:46;7.68;;;5.75;;
52888;SDS011;41413;52.770;6.892;2022-09-09T02:02:30;7.03;;;5.70;;
52888;SDS011;41413;52.770;6.892;2022-09-09T02:12:46;8.57;;;6.07;;
52888;SDS011;41413;52.770;6.892;2022-09-09T02:15:27;6.30;;;5.70;;
52888;SDS011;41413;52.770;6.892;2022-09-09T02:18:03;7.47;;;6.25;;
52888;SDS011;41413;52.770;6.892;2022-09-09T02:20:34;7.72;;;7.00;;
52888;SDS011;41413;52.770;6.892;2022-09-09T02:23:04;11.63;;;6.97;;
52888;SDS011;41413;52.770;6.892;2022-09-09T02:25:34;8.43;;;6.15;;
52888;SDS011;41413;52.770;6.892;2022-09-09T02:28:03;7.15;;;6.45;;
52888;SDS011;41413;52.770;6.892;2022-09-09T02:30:33;7.50;;;6.80;;
52888;SDS011;41413;52.770;6.892;2022-09-09T02:33:03;7.93;;;6.65;;
52888;SDS011;41413;52.770;6.892;2022-09-09T02:35:32;8.68;;;7.50;;
52888;SDS011;41413;52.770;6.892;2022-09-09T02:38:04;7.60;;;6.93;;
52888;SDS011;41413;52.770;6.892;2022-09-09T02:40:34;8.52;;;6.88;;
52888;SDS011;41413;52.770;6.892;2022-09-09T02:43:00;8.60;;;7.05;;
52888;SDS011;41413;52.770;6.892;2022-09-09T02:45:28;9.35;;;6.00;;
52888;SDS011;41413;52.770;6.892;2022-09-09T02:48:11;7.55;;;6.85;;
52888;SDS011;41413;52.770;6.892;2022-09-09T02:50:54;9.10;;;5.80;;
52888;SDS011;41413;52.770;6.892;2022-09-09T02:53:36;10.50;;;6.97;;
52888;SDS011;41413;52.770;6.892;2022-09-09T02:56:21;7.78;;;6.10;;
52888;SDS011;41413;52.770;6.892;2022-09-09T02:58:51;5.75;;;5.35;;
52888;SDS011;41413;52.770;6.892;2022-09-09T03:01:18;6.28;;;5.75;;
52888;SDS011;41413;52.770;6.892;2022-09-09T03:03:45;7.88;;;6.20;;
52888;SDS011;41413;52.770;6.892;2022-09-09T03:06:12;6.53;;;5.72;;
52888;SDS011;41413;52.770;6.892;2022-09-09T03:08:40;6.03;;;5.53;;
52888;SDS011;41413;52.770;6.892;2022-09-09T03:11:14;6.47;;;5.85;;
52888;SDS011;41413;52.770;6.892;2022-09-09T03:13:42;5.40;;;4.90;;
52888;SDS011;41413;52.770;6.892;2022-09-09T03:16:08;4.70;;;4.40;;
52888;SDS011;41413;52.770;6.892;2022-09-09T03:18:35;5.95;;;3.67;;
52888;SDS011;41413;52.770;6.892;2022-09-09T03:21:02;3.72;;;3.38;;
52888;SDS011;41413;52.770;6.892;2022-09-09T03:23:28;3.38;;;2.88;;
52888;SDS011;41413;52.770;6.892;2022-09-09T03:25:55;3.35;;;2.55;;
52888;SDS011;41413;52.770;6.892;2022-09-09T03:28:24;4.15;;;2.47;;
52888;SDS011;41413;52.770;6.892;2022-09-09T03:31:00;5.50;;;2.83;;
52888;SDS011;41413;52.770;6.892;2022-09-09T03:33:31;4.00;;;2.10;;
52888;SDS011;41413;52.770;6.892;2022-09-09T03:35:57;3.67;;;2.10;;
52888;SDS011;41413;52.770;6.892;2022-09-09T03:38:24;2.28;;;1.40;;
52888;SDS011;41413;52.770;6.892;2022-09-09T03:40:52;1.98;;;1.88;;
52888;SDS011;41413;52.770;6.892;2022-09-09T03:43:21;2.65;;;2.13;;
52888;SDS011;41413;52.770;6.892;2022-09-09T03:45:49;4.00;;;3.20;;
52888;SDS011;41413;52.770;6.892;2022-09-09T03:48:16;5.10;;;3.95;;
52888;SDS011;41413;52.770;6.892;2022-09-09T03:50:45;5.78;;;4.13;;
52888;SDS011;41413;52.770;6.892;2022-09-09T03:53:16;7.70;;;5.40;;
52888;SDS011;41413;52.770;6.892;2022-09-09T03:55:45;10.48;;;5.22;;
52888;SDS011;41413;52.770;6.892;2022-09-09T03:58:13;7.55;;;6.68;;
52888;SDS011;41413;52.770;6.892;2022-09-09T04:00:41;10.55;;;7.53;;
52888;SDS011;41413;52.770;6.892;2022-09-09T04:03:11;7.57;;;6.80;;
52888;SDS011;41413;52.770;6.892;2022-09-09T04:05:41;8.45;;;7.65;;
52888;SDS011;41413;52.770;6.892;2022-09-09T04:08:08;9.20;;;7.55;;
52888;SDS011;41413;52.770;6.892;2022-09-09T04:10:35;8.35;;;7.57;;
52888;SDS011;41413;52.770;6.892;2022-09-09T04:13:04;11.38;;;8.18;;
52888;SDS011;41413;52.770;6.892;2022-09-09T04:15:31;9.63;;;8.75;;
52888;SDS011;41413;52.770;6.892;2022-09-09T04:17:59;10.23;;;9.23;;
52888;SDS011;41413;52.770;6.892;2022-09-09T04:20:26;12.23;;;9.25;;
52888;SDS011;41413;52.770;6.892;2022-09-09T04:22:53;9.90;;;9.00;;
52888;SDS011;41413;52.770;6.892;2022-09-09T04:25:20;8.60;;;7.82;;
52888;SDS011;41413;52.770;6.892;2022-09-09T04:27:46;7.90;;;7.10;;
52888;SDS011;41413;52.770;6.892;2022-09-09T04:30:13;10.50;;;9.57;;
52888;SDS011;41413;52.770;6.892;2022-09-09T04:32:40;8.68;;;7.88;;
52888;SDS011;41413;52.770;6.892;2022-09-09T04:35:07;10.07;;;8.05;;
52888;SDS011;41413;52.770;6.892;2022-09-09T04:37:33;9.27;;;7.75;;
52888;SDS011;41413;52.770;6.892;2022-09-09T04:40:00;8.40;;;7.60;;
52888;SDS011;41413;52.770;6.892;2022-09-09T04:42:28;8.57;;;7.53;;
52888;SDS011;41413;52.770;6.892;2022-09-09T04:44:55;9.13;;;8.30;;
52888;SDS011;41413;52.770;6.892;2022-09-09T04:47:21;8.38;;;7.63;;
52888;SDS011;41413;52.770;6.892;2022-09-09T04:49:48;8.00;;;7.32;;
52888;SDS011;41413;52.770;6.892;2022-09-09T04:52:15;11.38;;;7.55;;
52888;SDS011;41413;52.770;6.892;2022-09-09T04:54:43;9.23;;;8.32;;
52888;SDS011;41413;52.770;6.892;2022-09-09T04:57:11;7.80;;;7.00;;
52888;SDS011;41413;52.770;6.892;2022-09-09T04:59:43;9.25;;;8.23;;
52888;SDS011;41413;52.770;6.892;2022-09-09T05:02:10;8.88;;;8.00;;
52888;SDS011;41413;52.770;6.892;2022-09-09T05:04:37;8.40;;;7.70;;
52888;SDS011;41413;52.770;6.892;2022-09-09T05:07:04;8.23;;;7.18;;
52888;SDS011;41413;52.770;6.892;2022-09-09T05:09:30;8.52;;;7.70;;
52888;SDS011;41413;52.770;6.892;2022-09-09T05:11:57;7.65;;;6.90;;
52888;SDS011;41413;52.770;6.892;2022-09-09T05:14:24;9.50;;;6.82;;
52888;SDS011;41413;52.770;6.892;2022-09-09T05:16:51;9.05;;;8.35;;
52888;SDS011;41413;52.770;6.892;2022-09-09T05:19:17;7.53;;;6.82;;
52888;SDS011;41413;52.770;6.892;2022-09-09T05:21:45;7.82;;;6.93;;
52888;SDS011;41413;52.770;6.892;2022-09-09T05:24:12;9.00;;;8.15;;
52888;SDS011;41413;52.770;6.892;2022-09-09T05:26:39;9.63;;;8.68;;
52888;SDS011;41413;52.770;6.892;2022-09-09T05:29:05;8.13;;;7.50;;
52888;SDS011;41413;52.770;6.892;2022-09-09T05:31:32;7.68;;;6.57;;
52888;SDS011;41413;52.770;6.892;2022-09-09T05:33:59;9.23;;;8.43;;
52888;SDS011;41413;52.770;6.892;2022-09-09T05:36:26;8.07;;;7.38;;
52888;SDS011;41413;52.770;6.892;2022-09-09T05:38:53;11.98;;;7.65;;
52888;SDS011;41413;52.770;6.892;2022-09-09T05:41:20;8.05;;;7.15;;
52888;SDS011;41413;52.770;6.892;2022-09-09T05:43:47;7.70;;;7.10;;
52888;SDS011;41413;52.770;6.892;2022-09-09T05:46:15;7.30;;;6.70;;
52888;SDS011;41413;52.770;6.892;2022-09-09T05:48:44;8.90;;;7.90;;
52888;SDS011;41413;52.770;6.892;2022-09-09T05:51:15;14.32;;;7.25;;
52888;SDS011;41413;52.770;6.892;2022-09-09T05:53:50;8.15;;;7.45;;
52888;SDS011;41413;52.770;6.892;2022-09-09T05:56:18;7.65;;;7.05;;
52888;SDS011;41413;52.770;6.892;2022-09-09T05:58:46;8.20;;;7.03;;
52888;SDS011;41413;52.770;6.892;2022-09-09T06:01:16;6.80;;;6.18;;
52888;SDS011;41413;52.770;6.892;2022-09-09T06:03:46;7.47;;;6.35;;
52888;SDS011;41413;52.770;6.892;2022-09-09T06:06:15;7.40;;;6.28;;
52888;SDS011;41413;52.770;6.892;2022-09-09T06:08:44;7.10;;;6.50;;
52888;SDS011;41413;52.770;6.892;2022-09-09T06:11:12;9.35;;;7.20;;
52888;SDS011;41413;52.770;6.892;2022-09-09T06:13:41;6.63;;;5.95;;
52888;SDS011;41413;52.770;6.892;2022-09-09T06:16:09;6.30;;;5.70;;
52888;SDS011;41413;52.770;6.892;2022-09-09T06:18:38;8.45;;;6.65;;
52888;SDS011;41413;52.770;6.892;2022-09-09T06:21:06;6.28;;;5.68;;
52888;SDS011;41413;52.770;6.892;2022-09-09T06:23:35;7.78;;;6.95;;
52888;SDS011;41413;52.770;6.892;2022-09-09T06:26:05;7.28;;;6.57;;
52888;SDS011;41413;52.770;6.892;2022-09-09T06:28:35;8.82;;;6.65;;
52888;SDS011;41413;52.770;6.892;2022-09-09T06:31:04;10.45;;;6.93;;
52888;SDS011;41413;52.770;6.892;2022-09-09T06:33:36;7.72;;;6.90;;
52888;SDS011;41413;52.770;6.892;2022-09-09T06:36:10;8.65;;;7.55;;
52888;SDS011;41413;52.770;6.892;2022-09-09T06:38:41;7.32;;;6.60;;
52888;SDS011;41413;52.770;6.892;2022-09-09T06:41:11;8.93;;;6.95;;
52888;SDS011;41413;52.770;6.892;2022-09-09T06:43:39;8.93;;;6.97;;
52888;SDS011;41413;52.770;6.892;2022-09-09T06:46:16;6.47;;;5.97;;
52888;SDS011;41413;52.770;6.892;2022-09-09T06:48:45;9.55;;;7.50;;
52888;SDS011;41413;52.770;6.892;2022-09-09T06:51:16;8.75;;;7.93;;
52888;SDS011;41413;52.770;6.892;2022-09-09T06:53:45;10.45;;;8.18;;
52888;SDS011;41413;52.770;6.892;2022-09-09T06:56:22;9.45;;;7.93;;
52888;SDS011;41413;52.770;6.892;2022-09-09T06:59:01;7.57;;;6.68;;
52888;SDS011;41413;52.770;6.892;2022-09-09T07:01:31;7.07;;;6.38;;
52888;SDS011;41413;52.770;6.892;2022-09-09T07:03:59;7.85;;;7.15;;
52888;SDS011;41413;52.770;6.892;2022-09-09T07:06:28;8.45;;;7.57;;
52888;SDS011;41413;52.770;6.892;2022-09-09T07:09:02;7.68;;;7.00;;
52888;SDS011;41413;52.770;6.892;2022-09-09T07:11:32;9.20;;;7.53;;
52888;SDS011;41413;52.770;6.892;2022-09-09T07:14:00;9.77;;;7.25;;
52888;SDS011;41413;52.770;6.892;2022-09-09T07:16:27;7.35;;;6.75;;
52888;SDS011;41413;52.770;6.892;2022-09-09T07:18:55;8.50;;;7.60;;
52888;SDS011;41413;52.770;6.892;2022-09-09T07:21:27;10.20;;;7.07;;
52888;SDS011;41413;52.770;6.892;2022-09-09T07:23:55;7.47;;;6.85;;
52888;SDS011;41413;52.770;6.892;2022-09-09T07:26:24;9.27;;;7.35;;
52888;SDS011;41413;52.770;6.892;2022-09-09T07:28:55;8.20;;;7.00;;
52888;SDS011;41413;52.770;6.892;2022-09-09T07:31:27;9.65;;;6.43;;
52888;SDS011;41413;52.770;6.892;2022-09-09T07:33:59;7.45;;;6.75;;
52888;SDS011;41413;52.770;6.892;2022-09-09T07:36:27;8.75;;;7.43;;
52888;SDS011;41413;52.770;6.892;2022-09-09T07:41:37;7.68;;;6.97;;
52888;SDS011;41413;52.770;6.892;2022-09-09T07:44:06;6.90;;;6.20;;
52888;SDS011;41413;52.770;6.892;2022-09-09T07:49:09;7.63;;;6.47;;
52888;SDS011;41413;52.770;6.892;2022-09-09T07:51:37;8.88;;;7.97;;
52888;SDS011;41413;52.770;6.892;2022-09-09T07:54:06;8.27;;;7.47;;
52888;SDS011;41413;52.770;6.892;2022-09-09T07:56:36;8.15;;;7.40;;
52888;SDS011;41413;52.770;6.892;2022-09-09T07:59:05;10.45;;;7.50;;
52888;SDS011;41413;52.770;6.892;2022-09-09T08:01:33;8.68;;;6.35;;
52888;SDS011;41413;52.770;6.892;2022-09-09T08:04:09;7.63;;;6.70;;
52888;SDS011;41413;52.770;6.892;2022-09-09T08:06:44;6.25;;;5.68;;
52888;SDS011;41413;52.770;6.892;2022-09-09T08:09:13;8.38;;;6.00;;
52888;SDS011;41413;52.770;6.892;2022-09-09T08:11:41;9.02;;;6.72;;
52888;SDS011;41413;52.770;6.892;2022-09-09T08:14:09;6.43;;;5.47;;
52888;SDS011;41413;52.770;6.892;2022-09-09T08:16:42;6.65;;;5.90;;
52888;SDS011;41413;52.770;6.892;2022-09-09T08:19:10;9.93;;;6.25;;
52888;SDS011;41413;52.770;6.892;2022-09-09T08:21:38;8.07;;;5.60;;
52888;SDS011;41413;52.770;6.892;2022-09-09T08:24:06;8.05;;;5.72;;
52888;SDS011;41413;52.770;6.892;2022-09-09T08:26:35;8.25;;;6.00;;
52888;SDS011;41413;52.770;6.892;2022-09-09T08:29:09;8.93;;;4.90;;
52888;SDS011;41413;52.770;6.892;2022-09-09T08:31:38;7.45;;;5.45;;
52888;SDS011;41413;52.770;6.892;2022-09-09T08:34:07;8.25;;;4.97;;
52888;SDS011;41413;52.770;6.892;2022-09-09T08:36:37;8.27;;;5.13;;
52888;SDS011;41413;52.770;6.892;2022-09-09T08:39:05;7.00;;;5.07;;
52888;SDS011;41413;52.770;6.892;2022-09-09T08:50:02;7.25;;;4.25;;
52888;SDS011;41413;52.770;6.892;2022-09-09T08:58:23;5.90;;;4.20;;
52888;SDS011;41413;52.770;6.892;2022-09-09T09:06:28;5.60;;;3.95;;
52888;SDS011;41413;52.770;6.892;2022-09-09T09:09:01;6.07;;;4.05;;
52888;SDS011;41413;52.770;6.892;2022-09-09T09:11:38;8.65;;;5.80;;
52888;SDS011;41413;52.770;6.892;2022-09-09T09:14:11;7.55;;;3.72;;
52888;SDS011;41413;52.770;6.892;2022-09-09T09:19:23;5.75;;;3.90;;
52888;SDS011;41413;52.770;6.892;2022-09-09T09:27:36;13.05;;;5.10;;
52888;SDS011;41413;52.770;6.892;2022-09-09T09:30:20;8.45;;;3.78;;
52888;SDS011;41413;52.770;6.892;2022-09-09T09:32:59;9.63;;;3.63;;
52888;SDS011;41413;52.770;6.892;2022-09-09T09:35:30;5.80;;;3.60;;
52888;SDS011;41413;52.770;6.892;2022-09-09T09:37:56;5.70;;;4.05;;
52888;SDS011;41413;52.770;6.892;2022-09-09T09:41:17;16.13;;;4.05;;
52888;SDS011;41413;52.770;6.892;2022-09-09T09:43:37;11.60;;;3.97;;
52888;SDS011;41413;52.770;6.892;2022-09-09T09:46:21;7.32;;;4.07;;
52888;SDS011;41413;52.770;6.892;2022-09-09T09:49:04;6.00;;;3.70;;
52888;SDS011;41413;52.770;6.892;2022-09-09T09:51:35;5.15;;;3.00;;
52888;SDS011;41413;52.770;6.892;2022-09-09T09:54:25;6.45;;;3.78;;
52888;SDS011;41413;52.770;6.892;2022-09-09T09:56:53;7.95;;;3.60;;
52888;SDS011;41413;52.770;6.892;2022-09-09T10:04:42;12.13;;;4.90;;
52888;SDS011;41413;52.770;6.892;2022-09-09T10:07:12;10.98;;;4.32;;
52888;SDS011;41413;52.770;6.892;2022-09-09T10:09:44;7.07;;;3.53;;
52888;SDS011;41413;52.770;6.892;2022-09-09T10:12:37;9.15;;;3.78;;
52888;SDS011;41413;52.770;6.892;2022-09-09T10:30:20;6.05;;;3.33;;
52888;SDS011;41413;52.770;6.892;2022-09-09T10:33:01;12.73;;;4.18;;
52888;SDS011;41413;52.770;6.892;2022-09-09T10:35:52;7.28;;;3.05;;
52888;SDS011;41413;52.770;6.892;2022-09-09T10:38:39;4.35;;;2.40;;
52888;SDS011;41413;52.770;6.892;2022-09-09T10:41:11;7.10;;;3.80;;
52888;SDS011;41413;52.770;6.892;2022-09-09T10:49:16;6.88;;;3.75;;
52888;SDS011;41413;52.770;6.892;2022-09-09T10:57:05;7.82;;;3.42;;
52888;SDS011;41413;52.770;6.892;2022-09-09T10:59:41;8.90;;;3.15;;
52888;SDS011;41413;52.770;6.892;2022-09-09T11:02:18;3.28;;;2.50;;
52888;SDS011;41413;52.770;6.892;2022-09-09T11:04:54;5.18;;;2.92;;
52888;SDS011;41413;52.770;6.892;2022-09-09T11:07:30;5.30;;;2.80;;
52888;SDS011;41413;52.770;6.892;2022-09-09T11:10:04;5.35;;;2.67;;
52888;SDS011;41413;52.770;6.892;2022-09-09T11:12:53;5.05;;;2.90;;
52888;SDS011;41413;52.770;6.892;2022-09-09T11:15:28;6.53;;;2.80;;
52888;SDS011;41413;52.770;6.892;2022-09-09T11:18:05;6.65;;;2.78;;
52888;SDS011;41413;52.770;6.892;2022-09-09T11:20:36;3.55;;;3.03;;
52888;SDS011;41413;52.770;6.892;2022-09-09T11:23:17;4.50;;;3.25;;
52888;SDS011;41413;52.770;6.892;2022-09-09T11:25:50;4.05;;;2.65;;
52888;SDS011;41413;52.770;6.892;2022-09-09T11:28:28;6.15;;;2.85;;
52888;SDS011;41413;52.770;6.892;2022-09-09T11:36:15;10.38;;;3.40;;
52888;SDS011;41413;52.770;6.892;2022-09-09T11:41:39;6.95;;;2.42;;
52888;SDS011;41413;52.770;6.892;2022-09-09T11:44:13;8.85;;;2.95;;
52888;SDS011;41413;52.770;6.892;2022-09-09T11:46:47;7.07;;;2.65;;
52888;SDS011;41413;52.770;6.892;2022-09-09T11:49:50;6.68;;;2.75;;
52888;SDS011;41413;52.770;6.892;2022-09-09T11:54:48;5.03;;;2.58;;
52888;SDS011;41413;52.770;6.892;2022-09-09T11:57:38;6.35;;;2.58;;
52888;SDS011;41413;52.770;6.892;2022-09-09T12:00:03;6.97;;;2.85;;
52888;SDS011;41413;52.770;6.892;2022-09-09T12:02:31;9.05;;;2.97;;
52888;SDS011;41413;52.770;6.892;2022-09-09T12:05:02;10.73;;;2.97;;
52888;SDS011;41413;52.770;6.892;2022-09-09T12:10:30;5.10;;;2.53;;
52888;SDS011;41413;52.770;6.892;2022-09-09T12:13:09;7.07;;;2.97;;
52888;SDS011;41413;52.770;6.892;2022-09-09T12:15:55;6.63;;;2.50;;
52888;SDS011;41413;52.770;6.892;2022-09-09T12:18:24;6.22;;;3.08;;
52888;SDS011;41413;52.770;6.892;2022-09-09T12:21:18;3.75;;;2.22;;
52888;SDS011;41413;52.770;6.892;2022-09-09T12:24:11;6.75;;;2.83;;
52888;SDS011;41413;52.770;6.892;2022-09-09T12:26:57;6.30;;;2.75;;
52888;SDS011;41413;52.770;6.892;2022-09-09T12:32:25;9.10;;;2.45;;
52888;SDS011;41413;52.770;6.892;2022-09-09T12:34:55;6.32;;;2.17;;
52888;SDS011;41413;52.770;6.892;2022-09-09T12:37:35;4.32;;;2.63;;
52888;SDS011;41413;52.770;6.892;2022-09-09T12:40:26;3.30;;;2.72;;
52888;SDS011;41413;52.770;6.892;2022-09-09T12:42:52;5.57;;;2.60;;
52888;SDS011;41413;52.770;6.892;2022-09-09T12:45:20;3.67;;;2.67;;
52888;SDS011;41413;52.770;6.892;2022-09-09T12:47:53;4.43;;;2.58;;
52888;SDS011;41413;52.770;6.892;2022-09-09T12:50:22;3.08;;;1.88;;
52888;SDS011;41413;52.770;6.892;2022-09-09T12:52:54;4.20;;;2.40;;
52888;SDS011;41413;52.770;6.892;2022-09-09T12:55:30;4.47;;;2.35;;
52888;SDS011;41413;52.770;6.892;2022-09-09T12:58:00;3.97;;;3.00;;
52888;SDS011;41413;52.770;6.892;2022-09-09T13:00:30;5.22;;;2.50;;
52888;SDS011;41413;52.770;6.892;2022-09-09T13:02:59;3.28;;;2.40;;
52888;SDS011;41413;52.770;6.892;2022-09-09T13:05:31;2.95;;;1.90;;
52888;SDS011;41413;52.770;6.892;2022-09-09T13:08:05;4.05;;;1.95;;
52888;SDS011;41413;52.770;6.892;2022-09-09T13:10:46;6.68;;;2.22;;
52888;SDS011;41413;52.770;6.892;2022-09-09T13:13:28;6.15;;;2.38;;
52888;SDS011;41413;52.770;6.892;2022-09-09T13:15:59;8.77;;;2.88;;
52888;SDS011;41413;52.770;6.892;2022-09-09T13:18:32;2.95;;;2.65;;
52888;SDS011;41413;52.770;6.892;2022-09-09T13:21:04;10.45;;;4.82;;
52888;SDS011;41413;52.770;6.892;2022-09-09T13:23:31;6.57;;;3.30;;
52888;SDS011;41413;52.770;6.892;2022-09-09T13:26:02;10.90;;;2.83;;
52888;SDS011;41413;52.770;6.892;2022-09-09T13:28:49;7.78;;;3.05;;
52888;SDS011;41413;52.770;6.892;2022-09-09T13:31:20;4.05;;;3.03;;
52888;SDS011;41413;52.770;6.892;2022-09-09T13:33:49;5.05;;;2.30;;
52888;SDS011;41413;52.770;6.892;2022-09-09T13:36:16;5.32;;;2.72;;
52888;SDS011;41413;52.770;6.892;2022-09-09T13:38:55;7.22;;;2.80;;
52888;SDS011;41413;52.770;6.892;2022-09-09T13:41:28;10.15;;;3.40;;
52888;SDS011;41413;52.770;6.892;2022-09-09T13:43:58;7.93;;;3.03;;
52888;SDS011;41413;52.770;6.892;2022-09-09T13:54:09;3.63;;;2.38;;
52888;SDS011;41413;52.770;6.892;2022-09-09T13:56:37;9.27;;;3.17;;
52888;SDS011;41413;52.770;6.892;2022-09-09T13:59:06;5.75;;;2.58;;
52888;SDS011;41413;52.770;6.892;2022-09-09T14:01:39;5.50;;;2.00;;
52888;SDS011;41413;52.770;6.892;2022-09-09T14:04:05;5.65;;;2.75;;
52888;SDS011;41413;52.770;6.892;2022-09-09T14:06:33;2.47;;;1.80;;
52888;SDS011;41413;52.770;6.892;2022-09-09T14:09:03;4.75;;;2.45;;
52888;SDS011;41413;52.770;6.892;2022-09-09T14:11:31;6.22;;;2.60;;
52888;SDS011;41413;52.770;6.892;2022-09-09T14:13:57;7.30;;;3.00;;
52888;SDS011;41413;52.770;6.892;2022-09-09T14:16:24;7.85;;;2.65;;
52888;SDS011;41413;52.770;6.892;2022-09-09T14:18:52;3.45;;;2.20;;
52888;SDS011;41413;52.770;6.892;2022-09-09T14:21:19;2.20;;;1.27;;
52888;SDS011;41413;52.770;6.892;2022-09-09T14:23:46;1.92;;;1.83;;
52888;SDS011;41413;52.770;6.892;2022-09-09T14:26:12;1.73;;;1.20;;
52888;SDS011;41413;52.770;6.892;2022-09-09T14:28:40;3.65;;;1.60;;
52888;SDS011;41413;52.770;6.892;2022-09-09T14:31:23;2.22;;;1.67;;
52888;SDS011;41413;52.770;6.892;2022-09-09T14:33:50;3.80;;;1.58;;
52888;SDS011;41413;52.770;6.892;2022-09-09T14:36:17;2.70;;;1.65;;
52888;SDS011;41413;52.770;6.892;2022-09-09T14:38:44;1.98;;;1.70;;
52888;SDS011;41413;52.770;6.892;2022-09-09T14:41:12;2.00;;;1.50;;
52888;SDS011;41413;52.770;6.892;2022-09-09T14:43:43;2.08;;;1.17;;
52888;SDS011;41413;52.770;6.892;2022-09-09T14:46:11;4.15;;;1.80;;
52888;SDS011;41413;52.770;6.892;2022-09-09T14:48:40;2.67;;;1.85;;
52888;SDS011;41413;52.770;6.892;2022-09-09T14:51:40;17.73;;;4.15;;
52888;SDS011;41413;52.770;6.892;2022-09-09T14:54:00;1.77;;;1.50;;
52888;SDS011;41413;52.770;6.892;2022-09-09T14:56:29;2.10;;;1.92;;
52888;SDS011;41413;52.770;6.892;2022-09-09T14:58:58;3.95;;;2.33;;
52888;SDS011;41413;52.770;6.892;2022-09-09T15:01:26;5.80;;;1.75;;
52888;SDS011;41413;52.770;6.892;2022-09-09T15:03:56;3.42;;;2.17;;
52888;SDS011;41413;52.770;6.892;2022-09-09T15:06:24;4.75;;;2.13;;
52888;SDS011;41413;52.770;6.892;2022-09-09T15:08:53;6.20;;;1.83;;
52888;SDS011;41413;52.770;6.892;2022-09-09T15:11:23;3.55;;;1.85;;
52888;SDS011;41413;52.770;6.892;2022-09-09T15:13:53;1.92;;;1.77;;
52888;SDS011;41413;52.770;6.892;2022-09-09T15:16:21;5.18;;;2.50;;
52888;SDS011;41413;52.770;6.892;2022-09-09T15:18:50;5.15;;;1.98;;
52888;SDS011;41413;52.770;6.892;2022-09-09T15:21:19;2.35;;;1.42;;
52888;SDS011;41413;52.770;6.892;2022-09-09T15:23:48;3.40;;;2.15;;
52888;SDS011;41413;52.770;6.892;2022-09-09T15:26:15;4.05;;;2.63;;
52888;SDS011;41413;52.770;6.892;2022-09-09T15:28:43;6.00;;;2.55;;
52888;SDS011;41413;52.770;6.892;2022-09-09T15:33:46;2.55;;;2.35;;
52888;SDS011;41413;52.770;6.892;2022-09-09T15:36:24;3.40;;;1.95;;
52888;SDS011;41413;52.770;6.892;2022-09-09T15:38:52;3.40;;;2.55;;
52888;SDS011;41413;52.770;6.892;2022-09-09T15:41:19;7.10;;;2.60;;
52888;SDS011;41413;52.770;6.892;2022-09-09T15:43:49;4.85;;;2.28;;
52888;SDS011;41413;52.770;6.892;2022-09-09T15:46:28;4.88;;;2.50;;
52888;SDS011;41413;52.770;6.892;2022-09-09T15:49:15;3.00;;;2.60;;
52888;SDS011;41413;52.770;6.892;2022-09-09T15:51:44;2.40;;;2.20;;
52888;SDS011;41413;52.770;6.892;2022-09-09T15:54:13;4.15;;;2.22;;
52888;SDS011;41413;52.770;6.892;2022-09-09T15:56:43;4.85;;;2.38;;
52888;SDS011;41413;52.770;6.892;2022-09-09T15:59:11;3.13;;;2.83;;
52888;SDS011;41413;52.770;6.892;2022-09-09T16:01:38;3.08;;;2.13;;
52888;SDS011;41413;52.770;6.892;2022-09-09T16:04:09;2.28;;;2.05;;
52888;SDS011;41413;52.770;6.892;2022-09-09T16:06:36;3.90;;;2.78;;
52888;SDS011;41413;52.770;6.892;2022-09-09T16:09:04;4.28;;;2.28;;
52888;SDS011;41413;52.770;6.892;2022-09-09T16:11:32;3.67;;;3.03;;
52888;SDS011;41413;52.770;6.892;2022-09-09T16:14:02;4.28;;;2.67;;
52888;SDS011;41413;52.770;6.892;2022-09-09T16:16:31;3.63;;;2.22;;
52888;SDS011;41413;52.770;6.892;2022-09-09T16:18:59;2.53;;;2.30;;
52888;SDS011;41413;52.770;6.892;2022-09-09T16:21:30;4.72;;;2.10;;
52888;SDS011;41413;52.770;6.892;2022-09-09T16:24:09;5.10;;;2.65;;
52888;SDS011;41413;52.770;6.892;2022-09-09T16:26:38;3.50;;;2.78;;
52888;SDS011;41413;52.770;6.892;2022-09-09T16:29:06;4.85;;;2.35;;
52888;SDS011;41413;52.770;6.892;2022-09-09T16:31:32;7.43;;;2.30;;
52888;SDS011;41413;52.770;6.892;2022-09-09T16:34:00;4.47;;;3.05;;
52888;SDS011;41413;52.770;6.892;2022-09-09T16:36:27;5.38;;;2.13;;
52888;SDS011;41413;52.770;6.892;2022-09-09T16:38:59;5.50;;;2.30;;
52888;SDS011;41413;52.770;6.892;2022-09-09T16:41:27;3.60;;;2.92;;
52888;SDS011;41413;52.770;6.892;2022-09-09T16:43:56;3.17;;;2.60;;
52888;SDS011;41413;52.770;6.892;2022-09-09T16:46:25;4.18;;;2.45;;
52888;SDS011;41413;52.770;6.892;2022-09-09T16:48:55;2.75;;;2.15;;
52888;SDS011;41413;52.770;6.892;2022-09-09T16:51:24;3.80;;;2.10;;
52888;SDS011;41413;52.770;6.892;2022-09-09T16:53:53;3.58;;;2.83;;
52888;SDS011;41413;52.770;6.892;2022-09-09T16:56:24;3.15;;;2.47;;
52888;SDS011;41413;52.770;6.892;2022-09-09T16:58:54;3.83;;;2.17;;
52888;SDS011;41413;52.770;6.892;2022-09-09T17:01:27;4.53;;;2.33;;
52888;SDS011;41413;52.770;6.892;2022-09-09T17:04:01;4.70;;;2.70;;
52888;SDS011;41413;52.770;6.892;2022-09-09T17:06:29;3.53;;;2.15;;
52888;SDS011;41413;52.770;6.892;2022-09-09T17:08:57;4.07;;;2.83;;
52888;SDS011;41413;52.770;6.892;2022-09-09T17:11:25;2.63;;;2.35;;
52888;SDS011;41413;52.770;6.892;2022-09-09T17:13:52;3.40;;;2.40;;
52888;SDS011;41413;52.770;6.892;2022-09-09T17:16:21;3.30;;;2.42;;
52888;SDS011;41413;52.770;6.892;2022-09-09T17:18:50;4.97;;;2.65;;
52888;SDS011;41413;52.770;6.892;2022-09-09T17:21:18;4.60;;;2.45;;
52888;SDS011;41413;52.770;6.892;2022-09-09T17:23:48;3.03;;;2.60;;